Time;durP1;ratioP1;P1;durP2;ratioP2;P2;SDS_P1;SDS_P2;PMS_P1;PMS_P2;Temp;Humidity;BMP_temperature;BMP_pressure;BME280_temperature;BME280_humidity;BME280_pressure;Samples;Min_cycle;Max_cycle;Signal;HPM_P1;HPM_P2
2022/07/12 00:02:15;;;;;;;11.23;2.03;;;;;;;;;;5075869;28;20199;-64
2022/07/12 00:04:42;;;;;;;31.92;2.67;;;;;;;;;;5075694;28;20210;-64
2022/07/12 00:07:09;;;;;;;13.32;2.20;;;;;;;;;;5075909;28;20584;-64
2022/07/12 00:09:36;;;;;;;16.75;2.50;;;;;;;;;;5075650;28;20217;-63
2022/07/12 00:12:04;;;;;;;20.02;2.58;;;;;;;;;;5075494;28;20257;-65
2022/07/12 00:14:31;;;;;;;17.77;1.98;;;;;;;;;;5075456;28;20203;-64
2022/07/12 00:16:58;;;;;;;13.68;2.30;;;;;;;;;;5075505;28;20203;-66
2022/07/12 00:19:25;;;;;;;13.40;2.22;;;;;;;;;;5075496;28;20227;-66
2022/07/12 00:21:52;;;;;;;27.52;2.60;;;;;;;;;;5075817;28;20231;-65
2022/07/12 00:24:19;;;;;;;21.10;2.42;;;;;;;;;;5075474;28;20203;-64
2022/07/12 00:26:46;;;;;;;10.15;2.25;;;;;;;;;;5075226;28;20237;-62
2022/07/12 00:29:13;;;;;;;18.55;2.25;;;;;;;;;;5074207;28;20215;-65
2022/07/12 00:31:40;;;;;;;12.40;2.15;;;;;;;;;;5075196;28;20229;-62
2022/07/12 00:34:07;;;;;;;19.98;2.65;;;;;;;;;;5075257;28;20231;-62
2022/07/12 00:36:34;;;;;;;21.95;2.35;;;;;;;;;;5089604;28;20206;-62
2022/07/12 00:39:03;;;;;;;17.98;2.08;;;;;;;;;;5095442;28;20223;-62
2022/07/12 00:41:30;;;;;;;15.10;2.97;;;;;;;;;;5095482;28;20199;-63
2022/07/12 00:43:57;;;;;;;15.00;2.70;;;;;;;;;;5095014;28;20693;-61
2022/07/12 00:46:24;;;;;;;16.20;2.42;;;;;;;;;;5095251;28;20203;-61
2022/07/12 00:48:51;;;;;;;19.75;2.75;;;;;;;;;;5094840;28;20636;-61
2022/07/12 00:51:18;;;;;;;13.15;2.30;;;;;;;;;;5095113;28;20293;-63
2022/07/12 00:53:46;;;;;;;12.25;2.05;;;;;;;;;;5094958;28;20207;-62
2022/07/12 00:56:14;;;;;;;17.98;2.65;;;;;;;;;;5094237;28;20202;-62
2022/07/12 00:58:42;;;;;;;21.60;2.53;;;;;;;;;;5094537;28;20222;-61
2022/07/12 01:01:10;;;;;;;19.13;2.08;;;;;;;;;;5095198;28;20264;-64
2022/07/12 01:03:37;;;;;;;15.60;2.35;;;;;;;;;;5094179;28;20283;-64
2022/07/12 01:06:06;;;;;;;14.48;2.38;;;;;;;;;;5094792;28;20194;-64
2022/07/12 01:08:34;;;;;;;19.48;2.55;;;;;;;;;;5094700;28;20211;-63
2022/07/12 01:11:01;;;;;;;18.95;2.28;;;;;;;;;;5093803;28;20194;-64
2022/07/12 01:13:28;;;;;;;12.93;1.90;;;;;;;;;;5094751;28;20264;-63
2022/07/12 01:15:56;;;;;;;15.80;2.40;;;;;;;;;;5095182;28;20218;-62
2022/07/12 01:18:23;;;;;;;10.68;2.30;;;;;;;;;;5093765;28;20230;-62
2022/07/12 01:20:50;;;;;;;12.02;2.10;;;;;;;;;;5094099;28;20267;-61
2022/07/12 01:23:17;;;;;;;18.35;2.35;;;;;;;;;;5093422;28;20230;-65
2022/07/12 01:25:44;;;;;;;14.50;2.45;;;;;;;;;;5094530;28;20281;-63
2022/07/12 01:28:11;;;;;;;19.63;2.85;;;;;;;;;;5093731;28;20202;-62
2022/07/12 01:30:40;;;;;;;12.30;2.70;;;;;;;;;;5094989;28;20217;-62
2022/07/12 01:33:07;;;;;;;26.10;2.78;;;;;;;;;;5094033;28;20199;-61
2022/07/12 01:35:36;;;;;;;16.20;2.58;;;;;;;;;;5093870;28;20207;-62
2022/07/12 01:38:03;;;;;;;16.27;3.58;;;;;;;;;;5094635;28;20692;-63
2022/07/12 01:40:30;;;;;;;19.70;2.75;;;;;;;;;;5094650;28;20222;-62
2022/07/12 01:42:57;;;;;;;20.33;3.03;;;;;;;;;;5094812;28;20280;-62
2022/07/12 01:45:24;;;;;;;19.30;2.67;;;;;;;;;;5094635;28;20206;-63
2022/07/12 01:47:51;;;;;;;18.45;2.50;;;;;;;;;;5094000;28;20199;-62
2022/07/12 01:50:18;;;;;;;15.88;2.53;;;;;;;;;;5093533;28;20211;-62
2022/07/12 01:52:45;;;;;;;12.85;2.25;;;;;;;;;;5094473;28;20252;-62
2022/07/12 01:55:12;;;;;;;16.13;2.75;;;;;;;;;;5094479;28;20264;-63
2022/07/12 01:57:45;;;;;;;14.70;2.22;;;;;;;;;;5094358;28;20256;-62
2022/07/12 02:00:14;;;;;;;19.00;2.30;;;;;;;;;;5094230;28;20223;-62
2022/07/12 02:02:44;;;;;;;22.92;2.60;;;;;;;;;;5094056;28;20644;-62
2022/07/12 02:05:11;;;;;;;16.55;2.47;;;;;;;;;;5093012;28;20532;-62
2022/07/12 02:07:39;;;;;;;19.92;3.25;;;;;;;;;;5086794;28;20211;-64
2022/07/12 02:10:07;;;;;;;16.25;2.38;;;;;;;;;;5083461;28;20222;-63
2022/07/12 02:12:36;;;;;;;17.80;3.45;;;;;;;;;;5077538;28;20203;-63
2022/07/12 02:15:06;;;;;;;13.02;2.55;;;;;;;;;;5077385;28;20214;-62
2022/07/12 02:17:33;;;;;;;19.58;2.30;;;;;;;;;;5077273;28;20587;-63
2022/07/12 02:20:00;;;;;;;14.57;2.55;;;;;;;;;;5077475;28;20222;-62
2022/07/12 02:22:27;;;;;;;16.00;2.55;;;;;;;;;;5077153;28;20239;-64
2022/07/12 02:24:54;;;;;;;15.70;3.30;;;;;;;;;;5077409;28;20264;-62
2022/07/12 02:27:21;;;;;;;15.93;2.55;;;;;;;;;;5077516;28;20200;-64
2022/07/12 02:29:48;;;;;;;14.95;2.38;;;;;;;;;;5077239;28;20226;-62
2022/07/12 02:32:16;;;;;;;11.40;2.42;;;;;;;;;;5076975;28;20638;-63
2022/07/12 02:34:42;;;;;;;13.55;2.40;;;;;;;;;;5077274;28;20214;-62
2022/07/12 02:37:10;;;;;;;18.70;2.28;;;;;;;;;;5077101;28;20210;-62
2022/07/12 02:39:37;;;;;;;19.73;2.60;;;;;;;;;;5077275;28;20275;-64
2022/07/12 02:42:04;;;;;;;20.02;2.50;;;;;;;;;;5076971;28;20265;-52
2022/07/12 02:44:31;;;;;;;13.18;2.60;;;;;;;;;;5076942;28;20211;-66
2022/07/12 02:47:00;;;;;;;11.57;2.42;;;;;;;;;;5076832;28;20203;-65
2022/07/12 02:49:27;;;;;;;11.50;2.90;;;;;;;;;;5076816;28;20213;-66
2022/07/12 02:51:54;;;;;;;16.50;2.60;;;;;;;;;;5077011;28;20199;-65
2022/07/12 02:54:21;;;;;;;9.35;2.22;;;;;;;;;;5076847;28;20203;-66
2022/07/12 02:56:48;;;;;;;13.93;2.70;;;;;;;;;;5076978;28;20218;-65
2022/07/12 02:59:15;;;;;;;8.57;2.20;;;;;;;;;;5076962;28;20227;-66
2022/07/12 03:01:42;;;;;;;21.95;2.55;;;;;;;;;;5076936;28;20224;-65
2022/07/12 03:04:10;;;;;;;13.15;2.88;;;;;;;;;;5077601;28;20207;-64
2022/07/12 03:06:37;;;;;;;18.27;2.90;;;;;;;;;;5076646;28;20221;-60
2022/07/12 03:09:04;;;;;;;9.40;2.47;;;;;;;;;;5076824;28;20207;-64
2022/07/12 03:11:31;;;;;;;20.63;2.72;;;;;;;;;;5076920;28;20269;-65
2022/07/12 03:13:58;;;;;;;19.45;2.78;;;;;;;;;;5076653;28;20214;-65
2022/07/12 03:16:25;;;;;;;11.52;3.17;;;;;;;;;;5076716;28;20234;-65
2022/07/12 03:18:52;;;;;;;12.45;3.67;;;;;;;;;;5076592;28;20218;-65
2022/07/12 03:21:19;;;;;;;8.07;3.65;;;;;;;;;;5076414;28;20208;-65
2022/07/12 03:23:46;;;;;;;9.23;3.90;;;;;;;;;;5076751;28;20214;-66
2022/07/12 03:26:13;;;;;;;15.70;3.90;;;;;;;;;;5076350;28;20272;-64
2022/07/12 03:28:40;;;;;;;8.40;4.07;;;;;;;;;;5076338;28;20223;-65
2022/07/12 03:31:07;;;;;;;15.43;4.35;;;;;;;;;;5076468;28;20206;-65
2022/07/12 03:33:34;;;;;;;11.00;5.10;;;;;;;;;;5076197;28;20206;-65
2022/07/12 03:36:01;;;;;;;14.80;4.70;;;;;;;;;;5076336;28;20210;-65
2022/07/12 03:38:28;;;;;;;15.15;4.90;;;;;;;;;;5076034;28;20229;-66
2022/07/12 03:40:55;;;;;;;18.92;4.88;;;;;;;;;;5075943;28;20223;-65
2022/07/12 03:43:22;;;;;;;11.27;4.75;;;;;;;;;;5075900;28;20595;-66
2022/07/12 03:45:49;;;;;;;14.63;5.00;;;;;;;;;;5079063;28;20264;-64
2022/07/12 03:48:16;;;;;;;11.27;4.68;;;;;;;;;;5096393;28;20264;-65
2022/07/12 03:50:45;;;;;;;14.77;4.43;;;;;;;;;;5096343;28;20219;-65
2022/07/12 03:53:12;;;;;;;13.30;5.70;;;;;;;;;;5096498;28;20203;-64
2022/07/12 03:55:39;;;;;;;19.15;5.53;;;;;;;;;;5096061;28;20210;-63
2022/07/12 03:58:06;;;;;;;13.68;5.38;;;;;;;;;;5095926;28;20203;-65
2022/07/12 04:00:34;;;;;;;11.70;5.43;;;;;;;;;;5096041;28;20539;-66
2022/07/12 04:03:01;;;;;;;18.10;5.05;;;;;;;;;;5095838;28;20543;-65
2022/07/12 04:05:28;;;;;;;18.42;5.78;;;;;;;;;;5089108;28;20716;-65
2022/07/12 04:07:55;;;;;;;13.32;5.82;;;;;;;;;;5090575;28;20223;-66
2022/07/12 04:10:22;;;;;;;13.75;5.60;;;;;;;;;;5092838;28;20639;-64
2022/07/12 04:12:49;;;;;;;12.05;5.78;;;;;;;;;;5093518;28;20241;-65
2022/07/12 04:15:17;;;;;;;13.95;6.72;;;;;;;;;;5091969;28;20223;-62
2022/07/12 04:17:44;;;;;;;11.88;5.97;;;;;;;;;;5089395;28;20653;-64
2022/07/12 04:20:12;;;;;;;14.35;7.22;;;;;;;;;;5092917;28;20230;-64
2022/07/12 04:22:39;;;;;;;10.35;6.32;;;;;;;;;;5084892;28;20691;-65
2022/07/12 04:25:07;;;;;;;12.85;6.93;;;;;;;;;;5086661;28;20226;-63
2022/07/12 04:27:34;;;;;;;11.88;7.15;;;;;;;;;;5074053;28;20230;-64
2022/07/12 04:30:02;;;;;;;18.40;7.40;;;;;;;;;;5085488;28;20263;-62
2022/07/12 04:32:31;;;;;;;12.55;7.25;;;;;;;;;;5079415;28;20219;-63
2022/07/12 04:34:58;;;;;;;11.10;7.47;;;;;;;;;;5074167;28;20231;-63
2022/07/12 04:37:25;;;;;;;15.15;7.43;;;;;;;;;;5085237;28;20660;-64
2022/07/12 04:39:52;;;;;;;12.40;7.57;;;;;;;;;;5074213;28;20296;-64
2022/07/12 04:42:19;;;;;;;18.05;7.68;;;;;;;;;;5074137;28;20234;-62
2022/07/12 04:44:46;;;;;;;9.57;7.28;;;;;;;;;;5074589;28;20219;-64
2022/07/12 04:47:13;;;;;;;12.27;7.85;;;;;;;;;;5074138;28;20234;-65
2022/07/12 04:49:40;;;;;;;13.15;8.45;;;;;;;;;;5073512;28;20219;-63
2022/07/12 04:52:07;;;;;;;14.88;8.50;;;;;;;;;;5090434;28;20234;-62
2022/07/12 04:54:33;;;;;;;14.32;7.75;;;;;;;;;;5094114;28;20276;-63
2022/07/12 04:57:01;;;;;;;16.58;8.10;;;;;;;;;;5093241;28;20295;-60
2022/07/12 04:59:28;;;;;;;14.95;8.50;;;;;;;;;;5092623;28;20279;-58
2022/07/12 05:01:55;;;;;;;17.33;8.85;;;;;;;;;;5092667;28;20719;-58
2022/07/12 05:04:22;;;;;;;12.55;7.55;;;;;;;;;;5093887;28;20533;-60
2022/07/12 05:06:49;;;;;;;17.83;7.53;;;;;;;;;;5094093;28;20227;-61
2022/07/12 05:09:17;;;;;;;12.07;8.07;;;;;;;;;;5093839;28;20226;-60
2022/07/12 05:11:44;;;;;;;26.02;8.45;;;;;;;;;;5094375;28;20230;-58
2022/07/12 05:14:12;;;;;;;18.27;8.00;;;;;;;;;;5093908;28;20230;-49
2022/07/12 05:16:39;;;;;;;10.10;6.70;;;;;;;;;;5094382;28;20230;-58
2022/07/12 05:19:06;;;;;;;12.02;7.28;;;;;;;;;;5093889;28;20258;-50
2022/07/12 05:21:34;;;;;;;10.77;7.82;;;;;;;;;;5092830;28;20299;-48
2022/07/12 05:24:03;;;;;;;10.70;7.38;;;;;;;;;;5094070;28;20226;-52
2022/07/12 05:26:30;;;;;;;10.20;7.00;;;;;;;;;;5093832;28;20321;-49
2022/07/12 05:28:57;;;;;;;9.65;6.72;;;;;;;;;;5093945;28;20903;-54
2022/07/12 05:31:25;;;;;;;10.63;6.35;;;;;;;;;;5093692;28;20227;-54
2022/07/12 05:33:52;;;;;;;8.02;6.43;;;;;;;;;;5093749;28;20246;-53
2022/07/12 05:36:20;;;;;;;8.00;5.95;;;;;;;;;;5093303;28;20222;-59
2022/07/12 05:38:47;;;;;;;6.13;5.50;;;;;;;;;;5090869;28;20695;-58
2022/07/12 05:41:14;;;;;;;6.50;5.28;;;;;;;;;;5086563;28;20222;-57
2022/07/12 05:43:41;;;;;;;10.45;5.80;;;;;;;;;;5092902;28;20259;-53
2022/07/12 05:46:09;;;;;;;9.07;5.60;;;;;;;;;;5096330;28;20218;-55
2022/07/12 05:48:37;;;;;;;13.07;6.00;;;;;;;;;;5093825;28;20279;-57
2022/07/12 05:53:50;;;;;;;9.20;5.03;;;;;;;;;;5095914;28;20566;-52
2022/07/12 05:56:17;;;;;;;6.18;5.47;;;;;;;;;;5096064;28;20222;-59
2022/07/12 05:58:44;;;;;;;7.97;5.35;;;;;;;;;;5096277;28;20637;-59
2022/07/12 06:01:11;;;;;;;6.45;5.60;;;;;;;;;;5096060;28;20230;-58
2022/07/12 06:03:38;;;;;;;6.55;4.93;;;;;;;;;;5096084;28;20230;-58
2022/07/12 06:06:05;;;;;;;7.80;5.53;;;;;;;;;;5095616;28;20222;-54
2022/07/12 06:08:32;;;;;;;10.02;5.72;;;;;;;;;;5095882;28;20223;-59
2022/07/12 06:10:59;;;;;;;7.60;5.70;;;;;;;;;;5096232;28;20672;-58
2022/07/12 06:13:26;;;;;;;7.25;5.20;;;;;;;;;;5095449;28;20215;-59
2022/07/12 06:15:53;;;;;;;8.95;4.95;;;;;;;;;;5089803;28;20222;-60
2022/07/12 06:18:20;;;;;;;8.18;5.70;;;;;;;;;;5093547;28;20226;-59
2022/07/12 06:20:47;;;;;;;6.90;5.38;;;;;;;;;;5094737;28;20291;-60
2022/07/12 06:23:15;;;;;;;10.18;5.65;;;;;;;;;;5092924;28;20292;-60
2022/07/12 06:25:42;;;;;;;9.18;5.85;;;;;;;;;;5095480;28;20627;-60
2022/07/12 06:28:11;;;;;;;8.32;5.90;;;;;;;;;;5095798;28;20219;-61
2022/07/12 06:30:38;;;;;;;6.60;5.93;;;;;;;;;;5095144;28;20230;-60
2022/07/12 06:33:05;;;;;;;7.82;5.97;;;;;;;;;;5095918;28;20550;-62
2022/07/12 06:35:33;;;;;;;12.10;5.93;;;;;;;;;;5095814;28;20250;-58
2022/07/12 06:38:02;;;;;;;7.10;5.95;;;;;;;;;;5096399;28;20287;-60
2022/07/12 06:40:29;;;;;;;8.55;5.55;;;;;;;;;;5096721;28;20257;-59
2022/07/12 06:42:56;;;;;;;9.35;5.55;;;;;;;;;;5096521;28;20309;-57
2022/07/12 06:45:24;;;;;;;8.23;5.50;;;;;;;;;;5096048;28;20287;-57
2022/07/12 06:47:52;;;;;;;6.50;4.75;;;;;;;;;;5095441;28;20218;-62
2022/07/12 06:50:19;;;;;;;9.90;5.72;;;;;;;;;;5095304;28;20223;-58
2022/07/12 06:52:46;;;;;;;9.10;5.38;;;;;;;;;;5092382;28;20225;-58
2022/07/12 06:55:14;;;;;;;5.88;4.90;;;;;;;;;;5095003;28;20283;-59
2022/07/12 06:57:41;;;;;;;10.35;4.53;;;;;;;;;;5094660;28;20657;-61
2022/07/12 07:00:08;;;;;;;10.10;5.07;;;;;;;;;;5092110;28;20672;-59
2022/07/12 07:02:35;;;;;;;6.18;4.60;;;;;;;;;;5095622;28;20218;-58
2022/07/12 07:05:02;;;;;;;10.85;4.68;;;;;;;;;;5091190;28;20219;-59
2022/07/12 07:07:30;;;;;;;8.65;4.72;;;;;;;;;;5094842;28;20291;-54
2022/07/12 07:09:56;;;;;;;5.20;4.50;;;;;;;;;;5093951;28;20665;-62
2022/07/12 07:12:23;;;;;;;9.23;4.28;;;;;;;;;;5094412;28;20624;-59
2022/07/12 07:14:51;;;;;;;6.60;4.82;;;;;;;;;;5093765;28;20210;-59
2022/07/12 07:17:19;;;;;;;8.75;4.50;;;;;;;;;;5094450;28;20229;-58
2022/07/12 07:19:46;;;;;;;6.07;4.20;;;;;;;;;;5094470;28;20230;-57
2022/07/12 07:22:13;;;;;;;8.30;3.95;;;;;;;;;;5091547;28;20238;-60
2022/07/12 07:24:40;;;;;;;5.45;4.18;;;;;;;;;;5094219;28;20219;-59
2022/07/12 07:27:08;;;;;;;8.43;4.63;;;;;;;;;;5095553;28;20216;-57
2022/07/12 07:32:25;;;;;;;8.20;4.00;;;;;;;;;;5065052;28;20242;-58
2022/07/12 07:34:52;;;;;;;5.43;4.10;;;;;;;;;;5094131;28;20630;-57
2022/07/12 07:37:19;;;;;;;5.10;3.90;;;;;;;;;;5095550;28;20219;-57
2022/07/12 07:39:46;;;;;;;8.85;3.90;;;;;;;;;;5095366;28;20222;-58
2022/07/12 07:42:14;;;;;;;7.38;4.00;;;;;;;;;;5095278;28;20246;-58
2022/07/12 07:44:40;;;;;;;5.05;3.55;;;;;;;;;;5095001;28;20306;-57
2022/07/12 07:47:28;;;;;;;11.40;3.92;;;;;;;;;;5095221;28;20226;-57
2022/07/12 07:49:55;;;;;;;9.05;4.05;;;;;;;;;;5095039;28;20225;-59
2022/07/12 07:52:22;;;;;;;5.35;3.78;;;;;;;;;;5094978;28;20305;-57
2022/07/12 07:54:49;;;;;;;5.85;3.75;;;;;;;;;;5094674;28;20230;-58
2022/07/12 07:57:16;;;;;;;4.30;3.38;;;;;;;;;;5095130;28;20245;-59
2022/07/12 07:59:43;;;;;;;7.32;3.90;;;;;;;;;;5094177;28;20668;-59
2022/07/12 08:02:12;;;;;;;7.25;3.72;;;;;;;;;;5094137;28;20242;-59
2022/07/12 08:04:39;;;;;;;4.80;3.35;;;;;;;;;;5091360;28;20653;-58
2022/07/12 08:07:06;;;;;;;7.70;3.92;;;;;;;;;;5091632;28;20219;-64
2022/07/12 08:09:33;;;;;;;4.72;3.20;;;;;;;;;;5093664;28;20210;-57
2022/07/12 08:12:00;;;;;;;12.55;3.50;;;;;;;;;;5093041;28;20310;-59
2022/07/12 08:14:27;;;;;;;6.35;3.58;;;;;;;;;;5090801;28;20219;-58
2022/07/12 08:16:54;;;;;;;4.45;3.15;;;;;;;;;;5093315;28;20566;-58
2022/07/12 08:19:21;;;;;;;12.75;3.65;;;;;;;;;;5094088;28;20209;-59
2022/07/12 08:21:48;;;;;;;6.40;3.47;;;;;;;;;;5091988;28;20292;-57
2022/07/12 08:24:16;;;;;;;9.18;3.22;;;;;;;;;;5093899;28;20577;-58
2022/07/12 08:26:42;;;;;;;5.82;3.22;;;;;;;;;;5093844;28;20194;-57
2022/07/12 08:29:10;;;;;;;4.32;2.80;;;;;;;;;;5094888;28;20191;-58
2022/07/12 08:31:37;;;;;;;10.82;3.22;;;;;;;;;;5091389;28;20625;-57
2022/07/12 08:34:04;;;;;;;5.13;3.13;;;;;;;;;;5090261;28;20314;-58
2022/07/12 08:36:30;;;;;;;5.30;3.28;;;;;;;;;;5094099;28;20233;-56
2022/07/12 08:39:00;;;;;;;4.32;2.53;;;;;;;;;;5093613;28;20238;-60
2022/07/12 08:41:27;;;;;;;4.75;2.80;;;;;;;;;;5092966;28;20231;-56
2022/07/12 08:43:54;;;;;;;3.67;2.70;;;;;;;;;;5093410;28;20254;-59
2022/07/12 08:46:21;;;;;;;5.70;2.67;;;;;;;;;;5093877;28;20758;-58
2022/07/12 08:48:48;;;;;;;6.00;3.00;;;;;;;;;;5093457;28;20245;-58
2022/07/12 08:51:19;;;;;;;6.75;2.85;;;;;;;;;;5094250;28;20218;-58
2022/07/12 08:53:49;;;;;;;6.10;2.58;;;;;;;;;;5093752;28;20222;-61
2022/07/12 08:56:33;;;;;;;8.35;2.80;;;;;;;;;;5094112;28;20219;-60
2022/07/12 08:59:14;;;;;;;5.55;2.15;;;;;;;;;;5093797;28;20222;-55
2022/07/12 09:01:49;;;;;;;5.40;2.53;;;;;;;;;;5093159;28;20241;-59
2022/07/12 09:04:22;;;;;;;3.88;2.58;;;;;;;;;;5093905;28;20230;-60
2022/07/12 09:06:49;;;;;;;5.55;2.55;;;;;;;;;;5093912;28;20223;-59
2022/07/12 09:09:31;;;;;;;4.88;2.28;;;;;;;;;;5093894;28;20704;-57
2022/07/12 09:11:58;;;;;;;4.85;2.40;;;;;;;;;;5094395;28;20226;-55
2022/07/12 09:14:28;;;;;;;3.22;2.45;;;;;;;;;;5093967;28;20230;-53
2022/07/12 09:17:13;;;;;;;7.50;1.83;;;;;;;;;;5093278;28;20218;-49
2022/07/12 09:19:54;;;;;;;3.40;2.10;;;;;;;;;;5099989;28;20560;-50
2022/07/12 09:22:21;;;;;;;3.92;1.60;;;;;;;;;;5100921;28;20254;-50
2022/07/12 09:24:48;;;;;;;11.25;2.00;;;;;;;;;;5100683;28;20230;-55
2022/07/12 09:27:15;;;;;;;4.65;1.50;;;;;;;;;;5100583;28;20241;-49
2022/07/12 09:29:49;;;;;;;6.28;1.50;;;;;;;;;;5100759;28;20226;-55
2022/07/12 09:38:08;;;;;;;4.43;1.55;;;;;;;;;;5097271;28;20552;-50
2022/07/12 09:40:35;;;;;;;3.63;1.30;;;;;;;;;;5097935;28;20214;-58
2022/07/12 09:43:03;;;;;;;3.97;1.23;;;;;;;;;;5097254;28;20222;-50
2022/07/12 09:45:30;;;;;;;3.20;1.65;;;;;;;;;;5099127;28;20218;-51
2022/07/12 09:47:57;;;;;;;12.40;1.55;;;;;;;;;;5097452;28;20218;-48
2022/07/12 09:50:24;;;;;;;3.47;1.58;;;;;;;;;;5099113;28;20215;-53
2022/07/12 09:52:54;;;;;;;3.30;1.50;;;;;;;;;;5099826;28;20218;-57
2022/07/12 09:55:24;;;;;;;10.35;1.65;;;;;;;;;;5100563;28;20230;-51
2022/07/12 09:57:55;;;;;;;6.30;1.65;;;;;;;;;;5099694;28;20343;-53
2022/07/12 10:00:23;;;;;;;9.52;2.58;;;;;;;;;;5100647;28;20237;-54
2022/07/12 10:02:51;;;;;;;6.60;1.40;;;;;;;;;;5099062;28;20332;-58
2022/07/12 10:05:19;;;;;;;4.45;1.40;;;;;;;;;;5099253;28;20230;-49
2022/07/12 10:07:46;;;;;;;4.00;1.98;;;;;;;;;;5100389;28;20214;-52
2022/07/12 10:10:13;;;;;;;5.70;1.50;;;;;;;;;;5097811;27;20254;-57
2022/07/12 10:12:41;;;;;;;5.88;1.48;;;;;;;;;;5099438;28;20668;-49
2022/07/12 10:15:15;;;;;;;2.67;1.30;;;;;;;;;;5099292;28;20221;-57
2022/07/12 10:17:54;;;;;;;10.60;1.65;;;;;;;;;;5100091;28;20226;-57
2022/07/12 10:20:24;;;;;;;3.22;1.40;;;;;;;;;;5100406;27;20226;-55
2022/07/12 10:22:53;;;;;;;6.43;1.30;;;;;;;;;;5099828;28;20618;-49
2022/07/12 10:25:33;;;;;;;6.72;1.45;;;;;;;;;;5099841;27;20554;-50
2022/07/12 10:28:01;;;;;;;1.67;1.10;;;;;;;;;;5099386;28;20726;-54
2022/07/12 10:30:28;;;;;;;5.57;1.63;;;;;;;;;;5097006;27;20230;-54
2022/07/12 10:32:58;;;;;;;8.85;1.60;;;;;;;;;;5096828;28;20238;-56
2022/07/12 10:35:30;;;;;;;3.05;1.48;;;;;;;;;;5097126;27;20660;-63
2022/07/12 10:38:12;;;;;;;8.40;1.50;;;;;;;;;;5096605;28;20691;-65
2022/07/12 10:40:43;;;;;;;3.40;1.33;;;;;;;;;;5075505;28;20231;-67
2022/07/12 10:43:10;;;;;;;4.60;1.13;;;;;;;;;;5076397;28;20242;-74
2022/07/12 10:45:39;;;;;;;2.90;1.13;;;;;;;;;;5076279;28;20228;-66
2022/07/12 10:48:08;;;;;;;3.28;1.25;;;;;;;;;;5087373;28;20223;-64
2022/07/12 10:50:41;;;;;;;5.32;1.10;;;;;;;;;;5095931;28;20226;-61
2022/07/12 10:53:27;;;;;;;3.95;1.20;;;;;;;;;;5096596;28;20514;-61
2022/07/12 10:56:05;;;;;;;2.10;0.98;;;;;;;;;;5096355;28;20276;-64
2022/07/12 10:58:36;;;;;;;6.15;1.10;;;;;;;;;;5096662;28;20234;-64
2022/07/12 11:01:13;;;;;;;12.77;1.27;;;;;;;;;;5095839;28;20268;-64
2022/07/12 11:03:51;;;;;;;7.50;1.20;;;;;;;;;;5096643;28;20252;-65
2022/07/12 11:06:20;;;;;;;6.75;1.52;;;;;;;;;;5096132;28;20652;-65
2022/07/12 11:08:48;;;;;;;3.53;1.00;;;;;;;;;;5095789;28;20234;-64
2022/07/12 11:11:15;;;;;;;4.32;1.30;;;;;;;;;;5095794;28;20195;-63
2022/07/12 11:13:42;;;;;;;7.57;1.02;;;;;;;;;;5095937;28;20202;-62
2022/07/12 11:16:09;;;;;;;1.98;0.95;;;;;;;;;;5092574;28;20211;-61
2022/07/12 11:18:37;;;;;;;11.27;1.10;;;;;;;;;;5092602;28;20214;-61
2022/07/12 11:21:05;;;;;;;7.38;1.15;;;;;;;;;;5093164;28;20569;-61
2022/07/12 11:23:32;;;;;;;4.07;0.95;;;;;;;;;;5094948;28;20806;-62
2022/07/12 11:26:01;;;;;;;1.17;0.80;;;;;;;;;;5094960;28;20628;-61
2022/07/12 11:28:29;;;;;;;3.67;0.82;;;;;;;;;;5094891;28;20187;-61
2022/07/12 11:31:11;;;;;;;1.52;0.88;;;;;;;;;;5093219;28;20199;-62
2022/07/12 11:33:42;;;;;;;2.25;1.02;;;;;;;;;;5096078;28;20191;-61
2022/07/12 11:36:12;;;;;;;3.53;0.80;;;;;;;;;;5095979;28;20191;-61
2022/07/12 11:38:43;;;;;;;7.47;0.90;;;;;;;;;;5095929;28;20191;-61
2022/07/12 11:41:12;;;;;;;2.70;0.70;;;;;;;;;;5093103;28;20191;-60
2022/07/12 11:43:40;;;;;;;2.05;0.70;;;;;;;;;;5091146;28;20249;-59
2022/07/12 11:46:08;;;;;;;1.92;0.95;;;;;;;;;;5094185;28;20221;-60
2022/07/12 11:48:36;;;;;;;4.15;0.75;;;;;;;;;;5094745;28;20271;-59
2022/07/12 11:51:09;;;;;;;5.38;1.00;;;;;;;;;;5095248;28;20279;-59
2022/07/12 11:53:37;;;;;;;4.50;1.15;;;;;;;;;;5094956;28;20241;-60
2022/07/12 11:56:06;;;;;;;12.43;1.30;;;;;;;;;;5095245;28;20684;-61
2022/07/12 11:58:37;;;;;;;12.73;1.50;;;;;;;;;;5094882;28;20321;-59
2022/07/12 12:01:10;;;;;;;7.82;1.10;;;;;;;;;;5095232;28;20219;-60
2022/07/12 12:03:46;;;;;;;2.72;1.00;;;;;;;;;;5094953;28;20226;-61
2022/07/12 12:06:14;;;;;;;3.60;0.85;;;;;;;;;;5094864;28;20226;-58
2022/07/12 12:08:42;;;;;;;6.80;0.85;;;;;;;;;;5095154;28;20229;-62
2022/07/12 12:11:09;;;;;;;4.30;1.08;;;;;;;;;;5095055;28;20314;-58
2022/07/12 12:13:36;;;;;;;6.60;0.88;;;;;;;;;;5094699;28;20533;-62
2022/07/12 12:16:05;;;;;;;10.30;1.30;;;;;;;;;;5095308;28;20222;-63
2022/07/12 12:18:34;;;;;;;8.40;1.10;;;;;;;;;;5095029;28;20309;-63
2022/07/12 12:21:06;;;;;;;6.72;1.10;;;;;;;;;;5095138;28;20227;-66
2022/07/12 12:23:36;;;;;;;4.25;0.90;;;;;;;;;;5094617;28;20230;-63
2022/07/12 12:26:17;;;;;;;6.50;0.82;;;;;;;;;;5094381;28;20235;-64
2022/07/12 12:28:46;;;;;;;2.28;1.05;;;;;;;;;;5085008;28;20243;-66
2022/07/12 12:31:15;;;;;;;3.83;1.05;;;;;;;;;;5084497;28;20215;-65
2022/07/12 12:33:45;;;;;;;19.73;1.38;;;;;;;;;;5094552;28;20230;-65
2022/07/12 12:36:21;;;;;;;2.42;1.33;;;;;;;;;;5094774;28;20296;-64
2022/07/12 12:38:50;;;;;;;4.20;1.20;;;;;;;;;;5094283;28;20226;-64
2022/07/12 12:41:17;;;;;;;3.95;1.00;;;;;;;;;;5094243;28;20214;-63
2022/07/12 12:43:44;;;;;;;1.67;0.90;;;;;;;;;;5094300;28;20231;-64
2022/07/12 12:46:19;;;;;;;2.03;1.27;;;;;;;;;;5094863;28;20226;-63
2022/07/12 12:48:46;;;;;;;2.38;1.13;;;;;;;;;;5092083;28;20246;-57
2022/07/12 12:51:13;;;;;;;3.30;1.20;;;;;;;;;;5093748;28;20215;-65
2022/07/12 12:53:42;;;;;;;3.40;1.10;;;;;;;;;;5093771;28;20222;-65
2022/07/12 12:56:11;;;;;;;5.82;1.10;;;;;;;;;;5093978;28;20226;-62
2022/07/12 12:58:39;;;;;;;2.08;1.23;;;;;;;;;;5093931;28;20300;-63
2022/07/12 13:01:07;;;;;;;8.88;1.60;;;;;;;;;;5094185;28;20230;-60
2022/07/12 13:03:34;;;;;;;2.33;1.58;;;;;;;;;;5085989;28;20482;-61
2022/07/12 13:06:02;;;;;;;2.65;1.40;;;;;;;;;;5074148;28;20302;-61
2022/07/12 13:08:29;;;;;;;3.53;1.45;;;;;;;;;;5073695;28;20219;-61
2022/07/12 13:13:41;;;;;;;3.28;1.38;;;;;;;;;;5082655;28;20222;-61
2022/07/12 13:16:08;;;;;;;5.28;1.70;;;;;;;;;;5092341;28;20231;-60
2022/07/12 13:18:35;;;;;;;4.15;1.48;;;;;;;;;;5091834;28;20222;-61
2022/07/12 13:21:03;;;;;;;4.35;1.85;;;;;;;;;;5091543;28;20661;-60
2022/07/12 13:23:30;;;;;;;4.55;1.58;;;;;;;;;;5092074;28;20230;-59
2022/07/12 13:25:56;;;;;;;7.95;1.70;;;;;;;;;;5090711;28;20215;-60
2022/07/12 13:28:24;;;;;;;3.53;1.95;;;;;;;;;;5091719;28;20241;-61
2022/07/12 13:30:54;;;;;;;5.28;1.80;;;;;;;;;;5092648;28;20276;-61
2022/07/12 13:33:21;;;;;;;3.60;1.38;;;;;;;;;;5093431;28;20632;-62
2022/07/12 13:35:49;;;;;;;6.75;1.48;;;;;;;;;;5090619;28;20222;-61
2022/07/12 13:38:16;;;;;;;3.92;1.60;;;;;;;;;;5082087;28;20556;-62
2022/07/12 13:40:43;;;;;;;3.40;1.80;;;;;;;;;;5070065;28;20265;-62
2022/07/12 13:43:10;;;;;;;6.10;2.30;;;;;;;;;;5071557;28;20231;-62
2022/07/12 13:45:37;;;;;;;2.83;1.80;;;;;;;;;;5073287;28;20739;-60
2022/07/12 13:48:04;;;;;;;3.50;1.35;;;;;;;;;;5093203;28;20272;-62
2022/07/12 13:50:32;;;;;;;7.03;1.92;;;;;;;;;;5093670;28;20649;-61
2022/07/12 13:52:59;;;;;;;3.97;1.33;;;;;;;;;;5093705;28;20215;-60
2022/07/12 13:55:27;;;;;;;5.00;1.77;;;;;;;;;;5092839;28;20318;-61
2022/07/12 13:57:55;;;;;;;3.65;1.30;;;;;;;;;;5088937;28;20543;-61
2022/07/12 14:00:22;;;;;;;4.50;1.27;;;;;;;;;;5091820;28;20222;-61
2022/07/12 14:02:49;;;;;;;4.32;1.08;;;;;;;;;;5093157;28;20300;-61
2022/07/12 14:05:21;;;;;;;4.00;1.33;;;;;;;;;;5092175;28;20233;-61
2022/07/12 14:07:50;;;;;;;7.78;1.80;;;;;;;;;;5095318;28;20199;-61
2022/07/12 14:10:17;;;;;;;13.77;1.98;;;;;;;;;;5076468;28;20200;-60
2022/07/12 14:12:44;;;;;;;1.95;1.25;;;;;;;;;;5086564;28;20202;-60
2022/07/12 14:17:57;;;;;;;6.05;1.30;;;;;;;;;;5090485;28;20528;-62
2022/07/12 14:20:24;;;;;;;1.75;1.10;;;;;;;;;;5076673;28;20223;-63
2022/07/12 14:22:58;;;;;;;2.13;1.25;;;;;;;;;;5081168;28;20267;-63
2022/07/12 14:25:25;;;;;;;3.75;1.27;;;;;;;;;;5096948;28;20287;-62
2022/07/12 14:27:52;;;;;;;2.63;1.40;;;;;;;;;;5097093;28;20226;-61
2022/07/12 14:30:19;;;;;;;1.50;1.15;;;;;;;;;;5096165;28;20234;-61
2022/07/12 14:32:47;;;;;;;4.00;1.42;;;;;;;;;;5091826;28;20288;-62
2022/07/12 14:35:19;;;;;;;2.85;1.60;;;;;;;;;;5094482;28;20223;-62
2022/07/12 14:37:46;;;;;;;5.40;1.52;;;;;;;;;;5095140;28;20221;-63
2022/07/12 14:40:13;;;;;;;3.95;1.33;;;;;;;;;;5096323;28;20299;-63
2022/07/12 14:42:41;;;;;;;3.45;1.40;;;;;;;;;;5091103;28;20223;-63
2022/07/12 14:45:08;;;;;;;1.90;1.10;;;;;;;;;;5081083;28;20255;-63
2022/07/12 14:47:36;;;;;;;5.60;1.52;;;;;;;;;;5076565;28;20227;-63
2022/07/12 14:50:04;;;;;;;1.80;1.35;;;;;;;;;;5089045;28;20226;-63
2022/07/12 14:52:32;;;;;;;3.28;1.48;;;;;;;;;;5096377;28;20563;-62
2022/07/12 14:54:59;;;;;;;5.00;1.52;;;;;;;;;;5096718;28;20233;-64
2022/07/12 14:57:26;;;;;;;2.28;1.15;;;;;;;;;;5096510;28;20226;-64
2022/07/12 14:59:53;;;;;;;3.00;1.30;;;;;;;;;;5096269;28;20649;-63
2022/07/12 15:02:21;;;;;;;3.08;1.35;;;;;;;;;;5095527;28;20223;-63